MAT weather

Mata De Plátano Airport
Sabana De, Santander Department, Colombia

Public forecast

Using degrees Celsius for public forecast. Weather courtesy of forecast.io.

Closest aviation weather report (METAR) to Mata De Plátano Airport

Closest report is Yariguíes Airport, 32.8 nm (60.7 km) SSW. Retrieved 2019/10/17 13:00 UTC (57 minutes ago):

SKEJ 171300Z 20005KT 9999 FEW012 SCT100 25/24 A2990

Closest aviation forecast (TAF) to Mata De Plátano Airport

Closest forecast is Palonegro Airport, 34.7 nm (64.3 km) SE. Retrieved 2019/10/17 12:39 UTC (1 hour ago):

TAF TAF SKBG 171030Z 1712/1812 19003KT 9999 SCT014 SCT080 TEMPO 1712/1714 4000 BCFG BKN008 BECMG 1715/1717 33009KT TEMPO 1722/1802 5000 DZRA BKN014 SCT070 BECMG 1801/1803 VRB02KT TX27/1719Z TN18/1811Z